sensor_id;sensor_type;location;lat;lon;timestamp;temperature;humidity
31975;DHT22;18500;43.618;1.474;2022-08-19T00:00:24;18.40;1.00
31975;DHT22;18500;43.618;1.474;2022-08-19T00:02:49;18.30;1.00
31975;DHT22;18500;43.618;1.474;2022-08-19T00:05:16;18.40;1.00
31975;DHT22;18500;43.618;1.474;2022-08-19T00:07:43;18.30;1.00
31975;DHT22;18500;43.618;1.474;2022-08-19T00:10:10;18.30;1.00
31975;DHT22;18500;43.618;1.474;2022-08-19T00:12:36;18.10;1.00
31975;DHT22;18500;43.618;1.474;2022-08-19T00:15:05;18.20;1.00
31975;DHT22;18500;43.618;1.474;2022-08-19T00:17:31;18.10;1.00
31975;DHT22;18500;43.618;1.474;2022-08-19T00:19:57;18.10;1.00
31975;DHT22;18500;43.618;1.474;2022-08-19T00:22:23;18.10;1.00
31975;DHT22;18500;43.618;1.474;2022-08-19T00:24:49;18.00;1.00
31975;DHT22;18500;43.618;1.474;2022-08-19T00:27:14;18.00;1.00
31975;DHT22;18500;43.618;1.474;2022-08-19T00:29:40;18.00;1.00
31975;DHT22;18500;43.618;1.474;2022-08-19T00:32:06;17.90;1.00
31975;DHT22;18500;43.618;1.474;2022-08-19T00:34:32;17.80;1.00
31975;DHT22;18500;43.618;1.474;2022-08-19T00:36:58;17.90;1.00
31975;DHT22;18500;43.618;1.474;2022-08-19T00:39:25;17.90;1.00
31975;DHT22;18500;43.618;1.474;2022-08-19T00:41:51;18.00;1.00
31975;DHT22;18500;43.618;1.474;2022-08-19T00:44:21;18.00;1.00
31975;DHT22;18500;43.618;1.474;2022-08-19T00:46:48;18.10;1.00
31975;DHT22;18500;43.618;1.474;2022-08-19T00:49:24;18.10;1.00
31975;DHT22;18500;43.618;1.474;2022-08-19T00:51:55;18.00;1.00
31975;DHT22;18500;43.618;1.474;2022-08-19T00:54:23;18.00;1.00
31975;DHT22;18500;43.618;1.474;2022-08-19T00:56:49;18.00;1.00
31975;DHT22;18500;43.618;1.474;2022-08-19T00:59:16;17.90;1.00
31975;DHT22;18500;43.618;1.474;2022-08-19T01:01:44;18.00;1.00
31975;DHT22;18500;43.618;1.474;2022-08-19T01:04:11;18.00;1.00
31975;DHT22;18500;43.618;1.474;2022-08-19T01:06:38;18.00;1.00
31975;DHT22;18500;43.618;1.474;2022-08-19T01:09:05;18.00;1.00
31975;DHT22;18500;43.618;1.474;2022-08-19T01:11:37;18.00;1.00
31975;DHT22;18500;43.618;1.474;2022-08-19T01:14:05;18.00;1.00
31975;DHT22;18500;43.618;1.474;2022-08-19T01:16:32;18.00;1.00
31975;DHT22;18500;43.618;1.474;2022-08-19T01:18:58;18.00;1.00
31975;DHT22;18500;43.618;1.474;2022-08-19T01:23:50;17.90;1.00
31975;DHT22;18500;43.618;1.474;2022-08-19T01:26:20;17.90;1.00
31975;DHT22;18500;43.618;1.474;2022-08-19T01:28:49;17.90;1.00
31975;DHT22;18500;43.618;1.474;2022-08-19T01:31:21;18.00;1.00
31975;DHT22;18500;43.618;1.474;2022-08-19T01:33:49;18.00;1.00
31975;DHT22;18500;43.618;1.474;2022-08-19T01:38:51;17.80;1.00
31975;DHT22;18500;43.618;1.474;2022-08-19T01:41:17;17.70;1.00
31975;DHT22;18500;43.618;1.474;2022-08-19T01:43:44;17.70;1.00
31975;DHT22;18500;43.618;1.474;2022-08-19T01:46:09;17.60;1.00
31975;DHT22;18500;43.618;1.474;2022-08-19T01:48:40;17.70;1.00
31975;DHT22;18500;43.618;1.474;2022-08-19T01:51:08;17.70;1.00
31975;DHT22;18500;43.618;1.474;2022-08-19T01:53:36;17.70;1.00
31975;DHT22;18500;43.618;1.474;2022-08-19T01:56:03;17.70;1.00
31975;DHT22;18500;43.618;1.474;2022-08-19T01:58:34;17.60;1.00
31975;DHT22;18500;43.618;1.474;2022-08-19T02:01:03;17.70;1.00
31975;DHT22;18500;43.618;1.474;2022-08-19T02:03:29;17.70;1.00
31975;DHT22;18500;43.618;1.474;2022-08-19T02:05:58;17.70;1.00
31975;DHT22;18500;43.618;1.474;2022-08-19T02:08:29;17.70;1.00
31975;DHT22;18500;43.618;1.474;2022-08-19T02:10:55;17.70;1.00
31975;DHT22;18500;43.618;1.474;2022-08-19T02:13:22;17.70;1.00
31975;DHT22;18500;43.618;1.474;2022-08-19T02:15:48;17.70;1.00
31975;DHT22;18500;43.618;1.474;2022-08-19T02:18:14;17.70;1.00
31975;DHT22;18500;43.618;1.474;2022-08-19T02:20:41;17.70;1.00
31975;DHT22;18500;43.618;1.474;2022-08-19T02:23:08;17.70;1.00
31975;DHT22;18500;43.618;1.474;2022-08-19T02:25:34;17.80;1.00
31975;DHT22;18500;43.618;1.474;2022-08-19T02:28:00;17.70;1.00
31975;DHT22;18500;43.618;1.474;2022-08-19T02:30:26;17.80;1.00
31975;DHT22;18500;43.618;1.474;2022-08-19T02:32:52;17.80;1.00
31975;DHT22;18500;43.618;1.474;2022-08-19T02:35:19;17.80;1.00
31975;DHT22;18500;43.618;1.474;2022-08-19T02:37:44;17.80;1.00
31975;DHT22;18500;43.618;1.474;2022-08-19T02:40:30;17.70;1.00
31975;DHT22;18500;43.618;1.474;2022-08-19T02:43:00;17.70;1.00
31975;DHT22;18500;43.618;1.474;2022-08-19T02:45:26;17.70;1.00
31975;DHT22;18500;43.618;1.474;2022-08-19T02:47:52;17.70;1.00
31975;DHT22;18500;43.618;1.474;2022-08-19T02:50:18;17.70;1.00
31975;DHT22;18500;43.618;1.474;2022-08-19T02:52:44;17.70;1.00
31975;DHT22;18500;43.618;1.474;2022-08-19T02:55:10;17.60;1.00
31975;DHT22;18500;43.618;1.474;2022-08-19T02:57:36;17.50;1.00
31975;DHT22;18500;43.618;1.474;2022-08-19T03:00:07;17.40;1.00
31975;DHT22;18500;43.618;1.474;2022-08-19T03:02:39;17.40;1.00
31975;DHT22;18500;43.618;1.474;2022-08-19T03:05:06;17.40;1.00
31975;DHT22;18500;43.618;1.474;2022-08-19T03:07:32;17.50;1.00
31975;DHT22;18500;43.618;1.474;2022-08-19T03:09:58;17.50;1.00
31975;DHT22;18500;43.618;1.474;2022-08-19T03:12:24;17.50;1.00
31975;DHT22;18500;43.618;1.474;2022-08-19T03:14:49;17.50;1.00
31975;DHT22;18500;43.618;1.474;2022-08-19T03:17:16;17.50;1.00
31975;DHT22;18500;43.618;1.474;2022-08-19T03:19:42;17.50;1.00
31975;DHT22;18500;43.618;1.474;2022-08-19T03:22:09;17.60;1.00
31975;DHT22;18500;43.618;1.474;2022-08-19T03:24:35;17.60;1.00
31975;DHT22;18500;43.618;1.474;2022-08-19T03:27:00;17.50;1.00
31975;DHT22;18500;43.618;1.474;2022-08-19T03:29:28;17.40;1.00
31975;DHT22;18500;43.618;1.474;2022-08-19T03:31:54;17.40;1.00
31975;DHT22;18500;43.618;1.474;2022-08-19T03:34:23;17.30;1.00
31975;DHT22;18500;43.618;1.474;2022-08-19T03:36:52;17.30;1.00
31975;DHT22;18500;43.618;1.474;2022-08-19T03:39:19;17.20;1.00
31975;DHT22;18500;43.618;1.474;2022-08-19T03:41:47;17.20;1.00
31975;DHT22;18500;43.618;1.474;2022-08-19T03:44:16;17.20;1.00
31975;DHT22;18500;43.618;1.474;2022-08-19T03:46:43;17.20;1.00
31975;DHT22;18500;43.618;1.474;2022-08-19T03:49:09;17.20;1.00
31975;DHT22;18500;43.618;1.474;2022-08-19T03:51:37;17.20;1.00
31975;DHT22;18500;43.618;1.474;2022-08-19T03:54:09;17.20;1.00
31975;DHT22;18500;43.618;1.474;2022-08-19T03:56:37;17.20;1.00
31975;DHT22;18500;43.618;1.474;2022-08-19T03:59:05;17.20;1.00
31975;DHT22;18500;43.618;1.474;2022-08-19T04:01:31;17.10;1.00
31975;DHT22;18500;43.618;1.474;2022-08-19T04:03:58;17.10;1.00
31975;DHT22;18500;43.618;1.474;2022-08-19T04:06:26;17.10;1.00
31975;DHT22;18500;43.618;1.474;2022-08-19T04:08:54;17.00;1.00
31975;DHT22;18500;43.618;1.474;2022-08-19T04:11:23;17.00;1.00
31975;DHT22;18500;43.618;1.474;2022-08-19T04:13:50;17.10;1.00
31975;DHT22;18500;43.618;1.474;2022-08-19T04:16:18;17.20;1.00
31975;DHT22;18500;43.618;1.474;2022-08-19T04:18:45;17.20;1.00
31975;DHT22;18500;43.618;1.474;2022-08-19T04:21:20;17.30;1.00
31975;DHT22;18500;43.618;1.474;2022-08-19T04:23:47;17.40;1.00
31975;DHT22;18500;43.618;1.474;2022-08-19T04:26:20;17.50;1.00
31975;DHT22;18500;43.618;1.474;2022-08-19T04:28:46;17.50;1.00
31975;DHT22;18500;43.618;1.474;2022-08-19T04:31:20;17.60;1.00
31975;DHT22;18500;43.618;1.474;2022-08-19T04:33:46;17.60;1.00
31975;DHT22;18500;43.618;1.474;2022-08-19T04:36:20;17.50;1.00
31975;DHT22;18500;43.618;1.474;2022-08-19T04:38:52;17.50;1.00
31975;DHT22;18500;43.618;1.474;2022-08-19T04:41:18;17.50;1.00
31975;DHT22;18500;43.618;1.474;2022-08-19T04:44:02;17.60;1.00
31975;DHT22;18500;43.618;1.474;2022-08-19T04:46:28;17.60;1.00
31975;DHT22;18500;43.618;1.474;2022-08-19T04:48:56;17.50;1.00
31975;DHT22;18500;43.618;1.474;2022-08-19T04:51:23;17.50;1.00
31975;DHT22;18500;43.618;1.474;2022-08-19T04:53:48;17.50;1.00
31975;DHT22;18500;43.618;1.474;2022-08-19T04:56:17;17.50;1.00
31975;DHT22;18500;43.618;1.474;2022-08-19T04:58:44;17.50;1.00
31975;DHT22;18500;43.618;1.474;2022-08-19T05:01:24;17.50;1.00
31975;DHT22;18500;43.618;1.474;2022-08-19T05:03:50;17.50;1.00
31975;DHT22;18500;43.618;1.474;2022-08-19T05:06:19;17.50;1.00
31975;DHT22;18500;43.618;1.474;2022-08-19T05:08:46;17.50;1.00
31975;DHT22;18500;43.618;1.474;2022-08-19T05:13:41;17.40;1.00
31975;DHT22;18500;43.618;1.474;2022-08-19T05:16:08;17.50;1.00
31975;DHT22;18500;43.618;1.474;2022-08-19T05:18:35;17.40;1.00
31975;DHT22;18500;43.618;1.474;2022-08-19T05:21:20;17.40;1.00
31975;DHT22;18500;43.618;1.474;2022-08-19T05:24:05;17.40;1.00
31975;DHT22;18500;43.618;1.474;2022-08-19T05:26:35;17.40;1.00
31975;DHT22;18500;43.618;1.474;2022-08-19T05:29:02;17.30;1.00
31975;DHT22;18500;43.618;1.474;2022-08-19T05:31:28;17.20;1.00
31975;DHT22;18500;43.618;1.474;2022-08-19T05:33:54;17.20;1.00
31975;DHT22;18500;43.618;1.474;2022-08-19T05:36:21;17.20;1.00
31975;DHT22;18500;43.618;1.474;2022-08-19T05:38:46;17.20;1.00
31975;DHT22;18500;43.618;1.474;2022-08-19T05:41:14;17.30;1.00
31975;DHT22;18500;43.618;1.474;2022-08-19T05:43:40;17.40;1.00
31975;DHT22;18500;43.618;1.474;2022-08-19T05:46:07;17.50;1.00
31975;DHT22;18500;43.618;1.474;2022-08-19T05:48:34;17.50;1.00
31975;DHT22;18500;43.618;1.474;2022-08-19T05:51:05;17.60;1.00
31975;DHT22;18500;43.618;1.474;2022-08-19T05:53:34;17.60;1.00
31975;DHT22;18500;43.618;1.474;2022-08-19T05:56:08;17.70;1.00
31975;DHT22;18500;43.618;1.474;2022-08-19T05:58:35;17.70;1.00
31975;DHT22;18500;43.618;1.474;2022-08-19T06:01:02;17.70;1.00
31975;DHT22;18500;43.618;1.474;2022-08-19T06:03:32;17.60;1.00
31975;DHT22;18500;43.618;1.474;2022-08-19T06:05:59;17.70;1.00
31975;DHT22;18500;43.618;1.474;2022-08-19T06:08:25;17.70;1.00
31975;DHT22;18500;43.618;1.474;2022-08-19T06:10:52;17.80;1.00
31975;DHT22;18500;43.618;1.474;2022-08-19T06:13:18;17.80;1.00
31975;DHT22;18500;43.618;1.474;2022-08-19T06:15:45;17.80;1.00
31975;DHT22;18500;43.618;1.474;2022-08-19T06:18:12;17.80;1.00
31975;DHT22;18500;43.618;1.474;2022-08-19T06:20:38;17.90;1.00
31975;DHT22;18500;43.618;1.474;2022-08-19T06:23:04;17.80;1.00
31975;DHT22;18500;43.618;1.474;2022-08-19T06:25:29;17.80;1.00
31975;DHT22;18500;43.618;1.474;2022-08-19T06:27:55;18.00;1.00
31975;DHT22;18500;43.618;1.474;2022-08-19T06:30:21;17.90;1.00
31975;DHT22;18500;43.618;1.474;2022-08-19T06:32:47;17.90;1.00
31975;DHT22;18500;43.618;1.474;2022-08-19T06:35:13;18.00;1.00
31975;DHT22;18500;43.618;1.474;2022-08-19T06:37:40;18.00;1.00
31975;DHT22;18500;43.618;1.474;2022-08-19T06:40:06;18.00;1.00
31975;DHT22;18500;43.618;1.474;2022-08-19T06:42:34;18.00;1.00
31975;DHT22;18500;43.618;1.474;2022-08-19T06:45:00;18.10;1.00
31975;DHT22;18500;43.618;1.474;2022-08-19T06:47:29;18.10;1.00
31975;DHT22;18500;43.618;1.474;2022-08-19T06:49:57;18.30;1.00
31975;DHT22;18500;43.618;1.474;2022-08-19T06:52:29;18.40;1.00
31975;DHT22;18500;43.618;1.474;2022-08-19T06:54:54;18.20;1.00
31975;DHT22;18500;43.618;1.474;2022-08-19T06:57:21;18.10;1.00
31975;DHT22;18500;43.618;1.474;2022-08-19T06:59:47;18.30;1.00
31975;DHT22;18500;43.618;1.474;2022-08-19T07:02:13;18.20;1.00
31975;DHT22;18500;43.618;1.474;2022-08-19T07:04:38;18.10;1.00
31975;DHT22;18500;43.618;1.474;2022-08-19T07:07:08;18.00;1.00
31975;DHT22;18500;43.618;1.474;2022-08-19T07:09:36;18.10;1.00
31975;DHT22;18500;43.618;1.474;2022-08-19T07:12:05;18.20;1.00
31975;DHT22;18500;43.618;1.474;2022-08-19T07:14:32;18.30;1.00
31975;DHT22;18500;43.618;1.474;2022-08-19T07:17:00;18.40;1.00
31975;DHT22;18500;43.618;1.474;2022-08-19T07:19:27;18.60;1.00
31975;DHT22;18500;43.618;1.474;2022-08-19T07:21:54;18.70;1.00
31975;DHT22;18500;43.618;1.474;2022-08-19T07:24:23;18.90;1.00
31975;DHT22;18500;43.618;1.474;2022-08-19T07:26:50;18.90;1.00
31975;DHT22;18500;43.618;1.474;2022-08-19T07:29:17;18.90;1.00
31975;DHT22;18500;43.618;1.474;2022-08-19T07:31:43;18.70;1.00
31975;DHT22;18500;43.618;1.474;2022-08-19T07:34:11;18.50;1.00
31975;DHT22;18500;43.618;1.474;2022-08-19T07:36:40;18.60;1.00
31975;DHT22;18500;43.618;1.474;2022-08-19T07:39:10;18.80;1.00
31975;DHT22;18500;43.618;1.474;2022-08-19T07:41:36;19.20;1.00
31975;DHT22;18500;43.618;1.474;2022-08-19T07:44:03;19.30;1.00
31975;DHT22;18500;43.618;1.474;2022-08-19T07:46:32;19.40;1.00
31975;DHT22;18500;43.618;1.474;2022-08-19T07:48:58;19.20;1.00
31975;DHT22;18500;43.618;1.474;2022-08-19T07:51:26;19.00;1.00
31975;DHT22;18500;43.618;1.474;2022-08-19T07:53:52;19.10;1.00
31975;DHT22;18500;43.618;1.474;2022-08-19T07:56:19;19.00;1.00
31975;DHT22;18500;43.618;1.474;2022-08-19T07:58:48;19.00;1.00
31975;DHT22;18500;43.618;1.474;2022-08-19T08:01:18;19.10;1.00
31975;DHT22;18500;43.618;1.474;2022-08-19T08:03:44;19.10;1.00
31975;DHT22;18500;43.618;1.474;2022-08-19T08:06:28;19.40;1.00
31975;DHT22;18500;43.618;1.474;2022-08-19T08:09:13;19.60;1.00
31975;DHT22;18500;43.618;1.474;2022-08-19T08:12:03;19.70;1.00
31975;DHT22;18500;43.618;1.474;2022-08-19T08:14:37;19.80;1.00
31975;DHT22;18500;43.618;1.474;2022-08-19T08:17:05;20.00;1.00
31975;DHT22;18500;43.618;1.474;2022-08-19T08:19:32;20.10;1.00
31975;DHT22;18500;43.618;1.474;2022-08-19T08:21:59;20.00;1.00
31975;DHT22;18500;43.618;1.474;2022-08-19T08:24:27;20.00;1.00
31975;DHT22;18500;43.618;1.474;2022-08-19T08:26:53;19.70;1.00
31975;DHT22;18500;43.618;1.474;2022-08-19T08:29:19;19.70;1.00
31975;DHT22;18500;43.618;1.474;2022-08-19T08:31:45;19.70;1.00
31975;DHT22;18500;43.618;1.474;2022-08-19T08:34:13;20.00;1.00
31975;DHT22;18500;43.618;1.474;2022-08-19T08:36:41;20.20;1.00
31975;DHT22;18500;43.618;1.474;2022-08-19T08:39:11;20.30;1.00
31975;DHT22;18500;43.618;1.474;2022-08-19T08:42:08;20.30;1.00
31975;DHT22;18500;43.618;1.474;2022-08-19T08:47:18;20.30;1.00
31975;DHT22;18500;43.618;1.474;2022-08-19T08:50:07;20.60;1.00
31975;DHT22;18500;43.618;1.474;2022-08-19T08:52:41;20.90;1.00
31975;DHT22;18500;43.618;1.474;2022-08-19T08:55:20;21.00;1.00
31975;DHT22;18500;43.618;1.474;2022-08-19T08:57:53;20.70;1.00
31975;DHT22;18500;43.618;1.474;2022-08-19T09:00:36;20.30;1.00
31975;DHT22;18500;43.618;1.474;2022-08-19T09:03:03;20.40;1.00
31975;DHT22;18500;43.618;1.474;2022-08-19T09:06:07;20.60;1.00
31975;DHT22;18500;43.618;1.474;2022-08-19T09:08:45;20.10;1.00
31975;DHT22;18500;43.618;1.474;2022-08-19T09:11:38;20.20;1.00
31975;DHT22;18500;43.618;1.474;2022-08-19T09:16:59;20.70;1.00
31975;DHT22;18500;43.618;1.474;2022-08-19T09:19:25;20.70;1.00
31975;DHT22;18500;43.618;1.474;2022-08-19T09:21:51;20.80;1.00
31975;DHT22;18500;43.618;1.474;2022-08-19T09:24:16;20.90;1.00
31975;DHT22;18500;43.618;1.474;2022-08-19T09:26:42;21.10;1.00
31975;DHT22;18500;43.618;1.474;2022-08-19T09:29:09;20.60;1.00
31975;DHT22;18500;43.618;1.474;2022-08-19T09:31:35;20.40;1.00
31975;DHT22;18500;43.618;1.474;2022-08-19T09:34:01;20.60;1.00
31975;DHT22;18500;43.618;1.474;2022-08-19T09:36:31;20.90;1.00
31975;DHT22;18500;43.618;1.474;2022-08-19T09:38:59;21.00;1.00
31975;DHT22;18500;43.618;1.474;2022-08-19T09:41:25;21.50;1.00
31975;DHT22;18500;43.618;1.474;2022-08-19T09:43:53;21.60;1.00
31975;DHT22;18500;43.618;1.474;2022-08-19T09:46:22;21.40;1.00
31975;DHT22;18500;43.618;1.474;2022-08-19T09:48:49;21.50;1.00
31975;DHT22;18500;43.618;1.474;2022-08-19T09:51:18;21.40;1.00
31975;DHT22;18500;43.618;1.474;2022-08-19T09:53:45;21.50;1.00
31975;DHT22;18500;43.618;1.474;2022-08-19T09:56:12;21.40;1.00
31975;DHT22;18500;43.618;1.474;2022-08-19T09:58:39;21.80;1.00
31975;DHT22;18500;43.618;1.474;2022-08-19T10:01:05;22.20;1.00
31975;DHT22;18500;43.618;1.474;2022-08-19T10:03:33;22.40;1.00
31975;DHT22;18500;43.618;1.474;2022-08-19T10:06:01;22.60;1.00
31975;DHT22;18500;43.618;1.474;2022-08-19T10:08:30;23.00;1.00
31975;DHT22;18500;43.618;1.474;2022-08-19T10:10:57;23.00;1.00
31975;DHT22;18500;43.618;1.474;2022-08-19T10:13:25;22.10;1.00
31975;DHT22;18500;43.618;1.474;2022-08-19T10:15:54;21.80;1.00
31975;DHT22;18500;43.618;1.474;2022-08-19T10:18:22;22.10;1.00
31975;DHT22;18500;43.618;1.474;2022-08-19T10:20:50;22.50;1.00
31975;DHT22;18500;43.618;1.474;2022-08-19T10:23:16;22.80;1.00
31975;DHT22;18500;43.618;1.474;2022-08-19T10:25:43;22.90;1.00
31975;DHT22;18500;43.618;1.474;2022-08-19T10:28:09;22.80;1.00
31975;DHT22;18500;43.618;1.474;2022-08-19T10:30:38;22.30;1.00
31975;DHT22;18500;43.618;1.474;2022-08-19T10:33:05;21.70;1.00
31975;DHT22;18500;43.618;1.474;2022-08-19T10:35:30;21.60;1.00
31975;DHT22;18500;43.618;1.474;2022-08-19T10:37:56;22.10;1.00
31975;DHT22;18500;43.618;1.474;2022-08-19T10:40:27;22.30;1.00
31975;DHT22;18500;43.618;1.474;2022-08-19T10:42:54;23.30;1.00
31975;DHT22;18500;43.618;1.474;2022-08-19T10:45:21;23.70;1.00
31975;DHT22;18500;43.618;1.474;2022-08-19T10:47:48;23.50;1.00
31975;DHT22;18500;43.618;1.474;2022-08-19T10:50:14;23.40;1.00
31975;DHT22;18500;43.618;1.474;2022-08-19T10:53:04;23.80;1.00
31975;DHT22;18500;43.618;1.474;2022-08-19T10:55:30;23.50;1.00
31975;DHT22;18500;43.618;1.474;2022-08-19T10:58:17;23.60;1.00
31975;DHT22;18500;43.618;1.474;2022-08-19T11:00:46;23.60;1.00
31975;DHT22;18500;43.618;1.474;2022-08-19T11:03:15;23.40;1.00
31975;DHT22;18500;43.618;1.474;2022-08-19T11:05:41;23.40;1.00
31975;DHT22;18500;43.618;1.474;2022-08-19T11:08:08;23.30;1.00
31975;DHT22;18500;43.618;1.474;2022-08-19T11:10:37;23.50;1.00
31975;DHT22;18500;43.618;1.474;2022-08-19T11:13:06;23.30;1.00
31975;DHT22;18500;43.618;1.474;2022-08-19T11:15:31;23.60;1.00
31975;DHT22;18500;43.618;1.474;2022-08-19T11:17:58;24.40;1.00
31975;DHT22;18500;43.618;1.474;2022-08-19T11:20:24;24.10;1.00
31975;DHT22;18500;43.618;1.474;2022-08-19T11:22:51;24.00;1.00
31975;DHT22;18500;43.618;1.474;2022-08-19T11:25:17;23.90;1.00
31975;DHT22;18500;43.618;1.474;2022-08-19T11:27:43;23.60;1.00
31975;DHT22;18500;43.618;1.474;2022-08-19T11:30:11;23.70;1.00
31975;DHT22;18500;43.618;1.474;2022-08-19T11:32:37;23.70;1.00
31975;DHT22;18500;43.618;1.474;2022-08-19T11:35:03;23.60;1.00
31975;DHT22;18500;43.618;1.474;2022-08-19T11:37:29;23.20;1.00
31975;DHT22;18500;43.618;1.474;2022-08-19T11:39:55;23.60;1.00
31975;DHT22;18500;43.618;1.474;2022-08-19T11:42:20;24.20;1.00
31975;DHT22;18500;43.618;1.474;2022-08-19T11:45:05;25.10;1.00
31975;DHT22;18500;43.618;1.474;2022-08-19T11:47:31;25.10;1.00
31975;DHT22;18500;43.618;1.474;2022-08-19T11:49:56;24.60;1.00
31975;DHT22;18500;43.618;1.474;2022-08-19T11:52:22;24.30;1.00
31975;DHT22;18500;43.618;1.474;2022-08-19T11:54:48;24.40;1.00
31975;DHT22;18500;43.618;1.474;2022-08-19T11:57:14;24.00;1.00
31975;DHT22;18500;43.618;1.474;2022-08-19T11:59:47;24.10;1.00
31975;DHT22;18500;43.618;1.474;2022-08-19T12:02:13;24.80;1.00
31975;DHT22;18500;43.618;1.474;2022-08-19T12:04:40;24.90;1.00
31975;DHT22;18500;43.618;1.474;2022-08-19T12:07:06;24.60;1.00
31975;DHT22;18500;43.618;1.474;2022-08-19T12:09:31;24.50;1.00
31975;DHT22;18500;43.618;1.474;2022-08-19T12:12:00;24.60;1.00
31975;DHT22;18500;43.618;1.474;2022-08-19T12:14:27;24.90;1.00
31975;DHT22;18500;43.618;1.474;2022-08-19T12:16:55;24.90;1.00
31975;DHT22;18500;43.618;1.474;2022-08-19T12:19:21;25.50;1.00
31975;DHT22;18500;43.618;1.474;2022-08-19T12:21:46;25.10;1.00
31975;DHT22;18500;43.618;1.474;2022-08-19T12:24:13;25.00;1.00
31975;DHT22;18500;43.618;1.474;2022-08-19T12:26:39;25.10;1.00
31975;DHT22;18500;43.618;1.474;2022-08-19T12:29:04;25.40;1.00
31975;DHT22;18500;43.618;1.474;2022-08-19T12:31:30;26.00;1.00
31975;DHT22;18500;43.618;1.474;2022-08-19T12:33:56;26.10;1.00
31975;DHT22;18500;43.618;1.474;2022-08-19T12:36:22;26.00;1.00
31975;DHT22;18500;43.618;1.474;2022-08-19T12:38:48;26.00;1.00
31975;DHT22;18500;43.618;1.474;2022-08-19T12:41:15;25.40;1.00
31975;DHT22;18500;43.618;1.474;2022-08-19T12:43:43;26.00;1.00
31975;DHT22;18500;43.618;1.474;2022-08-19T12:46:10;29.20;1.00
31975;DHT22;18500;43.618;1.474;2022-08-19T12:48:36;33.80;1.00
31975;DHT22;18500;43.618;1.474;2022-08-19T12:51:07;34.40;1.00
31975;DHT22;18500;43.618;1.474;2022-08-19T12:53:34;31.00;1.00
31975;DHT22;18500;43.618;1.474;2022-08-19T12:56:01;28.60;1.00
31975;DHT22;18500;43.618;1.474;2022-08-19T12:58:27;28.20;1.00
31975;DHT22;18500;43.618;1.474;2022-08-19T13:00:54;28.50;1.00
31975;DHT22;18500;43.618;1.474;2022-08-19T13:03:20;29.20;1.00
31975;DHT22;18500;43.618;1.474;2022-08-19T13:05:47;32.80;1.00
31975;DHT22;18500;43.618;1.474;2022-08-19T13:08:15;30.10;1.00
31975;DHT22;18500;43.618;1.474;2022-08-19T13:10:42;26.90;1.00
31975;DHT22;18500;43.618;1.474;2022-08-19T13:13:09;26.10;1.00
31975;DHT22;18500;43.618;1.474;2022-08-19T13:15:36;32.30;1.00
31975;DHT22;18500;43.618;1.474;2022-08-19T13:18:03;33.70;99.90
31975;DHT22;18500;43.618;1.474;2022-08-19T13:20:28;32.40;99.90
31975;DHT22;18500;43.618;1.474;2022-08-19T13:22:55;28.40;1.00
31975;DHT22;18500;43.618;1.474;2022-08-19T13:25:22;28.90;1.00
31975;DHT22;18500;43.618;1.474;2022-08-19T13:27:49;27.20;1.00
31975;DHT22;18500;43.618;1.474;2022-08-19T13:30:17;30.00;1.00
31975;DHT22;18500;43.618;1.474;2022-08-19T13:33:03;27.80;1.00
31975;DHT22;18500;43.618;1.474;2022-08-19T13:35:38;26.30;1.00
31975;DHT22;18500;43.618;1.474;2022-08-19T13:38:05;30.00;1.00
31975;DHT22;18500;43.618;1.474;2022-08-19T13:40:32;32.80;99.90
31975;DHT22;18500;43.618;1.474;2022-08-19T13:42:59;32.00;1.00
31975;DHT22;18500;43.618;1.474;2022-08-19T13:45:27;34.50;99.90
31975;DHT22;18500;43.618;1.474;2022-08-19T13:47:55;34.70;99.90
31975;DHT22;18500;43.618;1.474;2022-08-19T13:50:24;35.60;99.90
31975;DHT22;18500;43.618;1.474;2022-08-19T13:52:51;36.80;99.90
31975;DHT22;18500;43.618;1.474;2022-08-19T13:55:17;37.60;99.90
31975;DHT22;18500;43.618;1.474;2022-08-19T13:57:43;37.90;99.90
31975;DHT22;18500;43.618;1.474;2022-08-19T14:00:15;35.40;99.90
31975;DHT22;18500;43.618;1.474;2022-08-19T14:02:44;30.70;99.90
31975;DHT22;18500;43.618;1.474;2022-08-19T14:05:12;28.80;99.90
31975;DHT22;18500;43.618;1.474;2022-08-19T14:07:39;29.80;1.00
31975;DHT22;18500;43.618;1.474;2022-08-19T14:10:06;33.40;99.90
31975;DHT22;18500;43.618;1.474;2022-08-19T14:12:34;37.40;99.90
31975;DHT22;18500;43.618;1.474;2022-08-19T14:15:02;39.00;99.90
31975;DHT22;18500;43.618;1.474;2022-08-19T14:17:29;38.90;99.90
31975;DHT22;18500;43.618;1.474;2022-08-19T14:19:59;38.80;99.90
31975;DHT22;18500;43.618;1.474;2022-08-19T14:22:29;36.80;99.90
31975;DHT22;18500;43.618;1.474;2022-08-19T14:24:56;35.90;99.90
31975;DHT22;18500;43.618;1.474;2022-08-19T14:27:22;36.50;99.90
31975;DHT22;18500;43.618;1.474;2022-08-19T14:29:49;33.50;99.90
31975;DHT22;18500;43.618;1.474;2022-08-19T14:32:14;32.10;99.90
31975;DHT22;18500;43.618;1.474;2022-08-19T14:34:40;30.90;99.90
31975;DHT22;18500;43.618;1.474;2022-08-19T14:37:06;30.20;99.90
31975;DHT22;18500;43.618;1.474;2022-08-19T14:39:33;29.50;99.90
31975;DHT22;18500;43.618;1.474;2022-08-19T14:41:59;28.90;99.90
31975;DHT22;18500;43.618;1.474;2022-08-19T14:44:24;28.90;99.90
31975;DHT22;18500;43.618;1.474;2022-08-19T14:46:50;29.00;99.90
31975;DHT22;18500;43.618;1.474;2022-08-19T14:49:16;29.30;99.90
31975;DHT22;18500;43.618;1.474;2022-08-19T14:51:43;28.10;1.00
31975;DHT22;18500;43.618;1.474;2022-08-19T14:54:10;28.50;99.90
31975;DHT22;18500;43.618;1.474;2022-08-19T14:56:37;29.10;99.90
31975;DHT22;18500;43.618;1.474;2022-08-19T14:59:05;29.20;99.90
31975;DHT22;18500;43.618;1.474;2022-08-19T15:01:31;28.80;99.90
31975;DHT22;18500;43.618;1.474;2022-08-19T15:03:57;29.00;99.90
31975;DHT22;18500;43.618;1.474;2022-08-19T15:06:24;28.30;99.90
31975;DHT22;18500;43.618;1.474;2022-08-19T15:08:50;27.30;99.90
31975;DHT22;18500;43.618;1.474;2022-08-19T15:11:18;27.50;99.90
31975;DHT22;18500;43.618;1.474;2022-08-19T15:13:46;27.90;99.90
31975;DHT22;18500;43.618;1.474;2022-08-19T15:16:13;27.70;99.90
31975;DHT22;18500;43.618;1.474;2022-08-19T15:18:40;28.20;99.90
31975;DHT22;18500;43.618;1.474;2022-08-19T15:21:10;28.10;99.90
31975;DHT22;18500;43.618;1.474;2022-08-19T15:23:38;27.70;99.90
31975;DHT22;18500;43.618;1.474;2022-08-19T15:26:04;27.20;99.90
31975;DHT22;18500;43.618;1.474;2022-08-19T15:28:31;26.50;99.90
31975;DHT22;18500;43.618;1.474;2022-08-19T15:30:58;26.20;1.00
31975;DHT22;18500;43.618;1.474;2022-08-19T15:33:24;26.40;1.00
31975;DHT22;18500;43.618;1.474;2022-08-19T15:35:50;26.80;1.00
31975;DHT22;18500;43.618;1.474;2022-08-19T15:38:16;27.10;1.00
31975;DHT22;18500;43.618;1.474;2022-08-19T15:40:47;27.30;99.90
31975;DHT22;18500;43.618;1.474;2022-08-19T15:43:14;27.70;99.90
31975;DHT22;18500;43.618;1.474;2022-08-19T15:45:41;27.80;99.90
31975;DHT22;18500;43.618;1.474;2022-08-19T15:48:07;27.90;99.90
31975;DHT22;18500;43.618;1.474;2022-08-19T15:50:33;28.00;99.90
31975;DHT22;18500;43.618;1.474;2022-08-19T15:53:03;27.70;99.90
31975;DHT22;18500;43.618;1.474;2022-08-19T15:55:33;27.30;99.90
31975;DHT22;18500;43.618;1.474;2022-08-19T15:58:07;27.40;99.90
31975;DHT22;18500;43.618;1.474;2022-08-19T16:00:51;27.40;99.90
31975;DHT22;18500;43.618;1.474;2022-08-19T16:03:35;27.00;1.00